Disclaimer

Please do not use the information listed here in-flight or in-navigation, as they are not provided to us by the airports but are provided by volunteers, so they might be outdated.

Search


Regions


Airport information page

Radio informations:
ORANGE TWR - 120.7 MHz

Airport informations:
Latitude: 44° 08' 25.73" N
Longitude: 004° 52' 00.18" E
Elevation: 197 feet - 60 meters
Operating hours: Remarks
Operating agency: Military
Timezone: UTC+1(+2DT) - Last Sunday in March to last Sunday in October
Fuel: JP-8, SemiKeroscene MIL Spec T-83133, without icing inhibitor

100/130 MIL Spec, low lead, aviation gasoline (BLUE)

Runway information:
15/33 - 7909 x 197 feet< - >2411 x 60 meters

Recent METARs:
LFMO 211900Z AUTO VRB02KT 9999 FEW031 OVC076 10/08 Q1014 NOSIG
LFMO 211930Z AUTO VRB02KT 9000 FEW046 OVC078 09/08 Q1014 NOSIG
LFMO 212000Z AUTO VRB02KT 8000 BKN050 OVC078 09/08 Q1014 NOSIG

Airport on the map: